Time;durP1;ratioP1;P1;durP2;ratioP2;P2;SDS_P1;SDS_P2;PMS_P1;PMS_P2;Temp;Humidity;BMP_temperature;BMP_pressure;BME280_temperature;BME280_humidity;BME280_pressure;Samples;Min_cycle;Max_cycle;Signal;HPM_P1;HPM_P2
2023/04/30 00:00:11;;;;;;;19.80;15.98;;;15.80;99.90;;;;;;5114545;28;20047;-80
2023/04/30 00:02:37;;;;;;;23.65;16.75;;;15.90;99.90;;;;;;5114474;28;20503;-80
2023/04/30 00:05:03;;;;;;;22.90;17.40;;;15.90;99.90;;;;;;5114681;28;20405;-80
2023/04/30 00:07:29;;;;;;;20.80;17.52;;;15.80;99.90;;;;;;5115101;28;20015;-80
2023/04/30 00:09:55;;;;;;;22.17;18.15;;;15.80;99.90;;;;;;5114117;28;20102;-81
2023/04/30 00:12:20;;;;;;;23.60;18.33;;;15.80;99.90;;;;;;5114835;28;20040;-81
2023/04/30 00:14:46;;;;;;;21.35;17.55;;;15.80;99.90;;;;;;5114205;28;20039;-81
2023/04/30 00:17:13;;;;;;;22.77;17.40;;;15.80;99.90;;;;;;5113174;28;20054;-80
2023/04/30 00:19:39;;;;;;;22.67;17.65;;;15.80;99.90;;;;;;5114323;28;20016;-80
2023/04/30 00:22:05;;;;;;;21.77;17.35;;;15.80;99.90;;;;;;5114733;28;20106;-80
2023/04/30 00:24:30;;;;;;;20.08;17.02;;;15.80;99.90;;;;;;5113632;28;20027;-80
2023/04/30 00:26:56;;;;;;;18.38;16.30;;;15.70;99.90;;;;;;5114472;28;20024;-80
2023/04/30 00:29:22;;;;;;;19.52;16.17;;;15.70;99.90;;;;;;5114235;28;20040;-81
2023/04/30 00:31:47;;;;;;;25.95;16.73;;;15.70;99.90;;;;;;5114102;28;20028;-80
2023/04/30 00:34:13;;;;;;;22.17;17.42;;;15.70;99.90;;;;;;5113798;28;20036;-81
2023/04/30 00:36:39;;;;;;;18.75;16.27;;;15.70;99.90;;;;;;5113864;28;20125;-80
2023/04/30 00:39:05;;;;;;;24.83;17.13;;;15.70;99.90;;;;;;5113721;28;20027;-80
2023/04/30 00:41:33;;;;;;;21.00;16.65;;;15.70;99.90;;;;;;5113847;28;20023;-81
2023/04/30 00:43:58;;;;;;;26.08;17.63;;;15.70;99.90;;;;;;5114423;28;20020;-81
2023/04/30 00:46:24;;;;;;;24.92;18.85;;;15.70;99.90;;;;;;5113859;28;20069;-81
2023/04/30 00:48:50;;;;;;;24.92;18.83;;;15.60;99.90;;;;;;5113889;28;20023;-80
2023/04/30 00:51:15;;;;;;;21.88;18.55;;;15.60;99.90;;;;;;5114366;28;20031;-80
2023/04/30 00:53:42;;;;;;;24.60;19.70;;;15.60;99.90;;;;;;5113574;28;20035;-80
2023/04/30 00:56:09;;;;;;;23.33;19.75;;;15.60;99.90;;;;;;5113218;28;20035;-79
2023/04/30 00:58:35;;;;;;;29.35;21.63;;;15.60;99.90;;;;;;5113301;28;20046;-80
2023/04/30 01:01:03;;;;;;;28.88;21.02;;;15.60;99.90;;;;;;5113458;28;20043;-80
2023/04/30 01:03:28;;;;;;;23.58;21.00;;;15.60;99.90;;;;;;5113561;28;20016;-80
2023/04/30 01:05:54;;;;;;;26.27;21.20;;;15.60;99.90;;;;;;5113608;28;20036;-80
2023/04/30 01:08:20;;;;;;;24.83;22.10;;;15.60;99.90;;;;;;5113103;28;20093;-79
2023/04/30 01:11:07;;;;;;;25.90;21.17;;;15.60;99.90;;;;;;5113656;28;20027;-80
2023/04/30 01:13:51;;;;;;;26.90;21.25;;;15.60;99.90;;;;;;5113161;28;20054;-80
2023/04/30 01:16:29;;;;;;;26.75;22.17;;;15.60;99.90;;;;;;5113152;28;20047;-80
2023/04/30 01:19:04;;;;;;;28.65;22.73;;;15.60;99.90;;;;;;5113287;28;20542;-79
2023/04/30 01:21:32;;;;;;;29.80;22.35;;;15.60;99.90;;;;;;5113208;28;20023;-80
2023/04/30 01:24:16;;;;;;;28.17;22.05;;;15.60;99.90;;;;;;5113007;28;20054;-79
2023/04/30 01:26:50;;;;;;;28.02;20.95;;;15.50;99.90;;;;;;5113144;28;20024;-79
2023/04/30 01:29:18;;;;;;;26.55;21.48;;;15.60;99.90;;;;;;5094625;28;20080;-79
2023/04/30 01:31:44;;;;;;;26.92;21.20;;;15.60;99.90;;;;;;5112978;28;20047;-79
2023/04/30 01:34:10;;;;;;;25.67;19.83;;;15.60;99.90;;;;;;5112555;28;20082;-80
2023/04/30 01:37:11;;;;;;;23.08;19.58;;;15.60;99.90;;;;;;5112688;28;20396;-79
2023/04/30 01:39:55;;;;;;;26.88;20.45;;;15.60;99.90;;;;;;5112918;28;20039;-80
2023/04/30 01:42:28;;;;;;;25.17;19.90;;;15.60;99.90;;;;;;5113054;28;20032;-79
2023/04/30 01:44:56;;;;;;;21.85;18.65;;;15.60;99.90;;;;;;5112810;28;20020;-80
2023/04/30 01:47:34;;;;;;;24.33;18.95;;;15.60;99.90;;;;;;5112837;28;20499;-80
2023/04/30 01:50:27;;;;;;;24.02;18.48;;;15.60;99.90;;;;;;5094588;28;20028;-79
2023/04/30 01:52:57;;;;;;;23.88;17.95;;;15.60;99.90;;;;;;5112385;28;20440;-80
2023/04/30 01:55:55;;;;;;;24.00;17.15;;;15.60;99.90;;;;;;5094050;28;20043;-79
2023/04/30 01:58:23;;;;;;;23.42;17.65;;;15.60;99.90;;;;;;5103667;28;20438;-78
2023/04/30 02:00:49;;;;;;;25.95;18.00;;;15.60;99.90;;;;;;5112383;28;20111;-79
2023/04/30 02:03:14;;;;;;;26.30;17.73;;;15.60;99.90;;;;;;5112304;28;20095;-79
2023/04/30 02:05:40;;;;;;;26.00;17.30;;;15.60;99.90;;;;;;5111831;28;20024;-79
2023/04/30 02:08:06;;;;;;;24.65;17.23;;;15.60;99.90;;;;;;5111923;28;20015;-78
2023/04/30 02:10:32;;;;;;;23.38;17.15;;;15.60;99.90;;;;;;5112290;28;20039;-79
2023/04/30 02:12:57;;;;;;;24.20;17.50;;;15.60;99.90;;;;;;5111669;28;20044;-79
2023/04/30 02:15:23;;;;;;;25.05;16.98;;;15.60;99.90;;;;;;5112250;28;20096;-79
2023/04/30 02:17:49;;;;;;;26.13;17.70;;;15.60;99.90;;;;;;5111888;28;20081;-79
2023/04/30 02:20:15;;;;;;;26.67;17.13;;;15.60;99.90;;;;;;5111613;28;20059;-79
2023/04/30 02:22:40;;;;;;;20.00;17.02;;;15.60;99.90;;;;;;5112598;28;20019;-79
2023/04/30 02:25:06;;;;;;;20.88;16.83;;;15.60;99.90;;;;;;5112115;28;20416;-79
2023/04/30 02:27:32;;;;;;;21.13;16.15;;;15.60;99.90;;;;;;5112424;28;20029;-78
2023/04/30 02:29:59;;;;;;;20.50;16.33;;;15.60;99.90;;;;;;5112448;28;20040;-79
2023/04/30 02:32:25;;;;;;;19.15;15.70;;;15.60;99.90;;;;;;5111786;28;20024;-78
2023/04/30 02:34:50;;;;;;;20.23;16.50;;;15.60;99.90;;;;;;5111248;28;20035;-79
2023/04/30 02:37:16;;;;;;;24.80;17.10;;;15.60;99.90;;;;;;5111891;28;20027;-79
2023/04/30 02:39:42;;;;;;;22.30;16.10;;;15.60;99.90;;;;;;5111126;28;20031;-79
2023/04/30 02:42:07;;;;;;;22.23;16.80;;;15.60;99.90;;;;;;5112115;28;20019;-79
2023/04/30 02:44:34;;;;;;;22.25;16.40;;;15.60;99.90;;;;;;5112187;28;20433;-79
2023/04/30 02:47:00;;;;;;;21.13;16.83;;;15.60;99.90;;;;;;5111603;28;20027;-79
2023/04/30 02:49:26;;;;;;;21.85;15.38;;;15.60;99.90;;;;;;5093650;28;20407;-79
2023/04/30 02:51:52;;;;;;;22.05;16.00;;;15.60;99.90;;;;;;5112049;28;20032;-78
2023/04/30 02:54:18;;;;;;;22.58;15.65;;;15.60;99.90;;;;;;5111895;28;20032;-78
2023/04/30 02:56:44;;;;;;;18.63;14.77;;;15.60;99.90;;;;;;5111509;28;20407;-79
2023/04/30 02:59:10;;;;;;;21.60;15.02;;;15.60;99.90;;;;;;5111616;28;20028;-78
2023/04/30 03:01:35;;;;;;;21.52;15.55;;;15.60;99.90;;;;;;5111331;28;20042;-78
2023/04/30 03:04:03;;;;;;;19.92;15.30;;;15.60;99.90;;;;;;5111548;28;20492;-79
2023/04/30 03:06:30;;;;;;;24.33;15.73;;;15.50;99.90;;;;;;5111582;28;20026;-78
2023/04/30 03:08:56;;;;;;;17.52;14.10;;;15.50;99.90;;;;;;5111710;28;20023;-78
2023/04/30 03:11:21;;;;;;;22.33;15.25;;;15.60;99.90;;;;;;5111656;28;20039;-78
2023/04/30 03:13:51;;;;;;;22.17;14.88;;;15.60;99.90;;;;;;5111652;28;20054;-78
2023/04/30 03:16:18;;;;;;;19.90;13.60;;;15.50;99.90;;;;;;5111272;28;20063;-78
2023/04/30 03:18:47;;;;;;;20.48;13.35;;;15.50;99.90;;;;;;5111734;28;20016;-78
2023/04/30 03:21:13;;;;;;;20.42;13.23;;;15.50;99.90;;;;;;5111726;28;20023;-78
2023/04/30 03:23:39;;;;;;;19.20;13.63;;;15.60;99.90;;;;;;5111445;28;20434;-78
2023/04/30 03:26:05;;;;;;;19.92;13.52;;;15.50;99.90;;;;;;5111810;28;20485;-78
2023/04/30 03:28:30;;;;;;;18.65;12.52;;;15.60;99.90;;;;;;5111438;28;20779;-78
2023/04/30 03:30:58;;;;;;;18.50;12.95;;;15.50;99.90;;;;;;5111220;28;20024;-78
2023/04/30 03:33:23;;;;;;;18.65;12.70;;;15.50;99.90;;;;;;5111265;28;20038;-78
2023/04/30 03:35:50;;;;;;;18.70;13.27;;;15.50;99.90;;;;;;5111650;28;20392;-78
2023/04/30 03:38:16;;;;;;;16.05;12.85;;;15.50;99.90;;;;;;5111095;28;20020;-78
2023/04/30 03:40:42;;;;;;;18.63;13.00;;;15.50;99.90;;;;;;5111243;28;20046;-78
2023/04/30 03:43:07;;;;;;;17.33;13.18;;;15.50;99.90;;;;;;5111704;28;20094;-79
2023/04/30 03:45:33;;;;;;;19.75;13.77;;;15.50;99.90;;;;;;5110969;28;20023;-79
2023/04/30 03:47:59;;;;;;;20.42;13.35;;;15.50;99.90;;;;;;5111164;28;20019;-78
2023/04/30 03:50:24;;;;;;;18.20;13.75;;;15.50;99.90;;;;;;5111388;28;20088;-78
2023/04/30 03:52:50;;;;;;;19.30;13.50;;;15.50;99.90;;;;;;5113266;28;20027;-78
2023/04/30 03:55:17;;;;;;;16.98;14.05;;;15.50;99.90;;;;;;5114874;28;20621;-78
2023/04/30 03:57:43;;;;;;;20.23;13.55;;;15.40;99.90;;;;;;5115030;28;20050;-78
2023/04/30 04:00:12;;;;;;;17.17;14.00;;;15.50;99.90;;;;;;5114545;28;20496;-78
2023/04/30 04:02:38;;;;;;;18.67;13.75;;;15.50;99.90;;;;;;5095980;28;20019;-78
2023/04/30 04:05:04;;;;;;;17.70;13.40;;;15.40;99.90;;;;;;5114429;28;20036;-78
2023/04/30 04:07:30;;;;;;;17.05;14.00;;;15.40;99.90;;;;;;5114596;28;20024;-78
2023/04/30 04:09:56;;;;;;;18.90;14.30;;;15.50;99.90;;;;;;5114649;28;20043;-78
2023/04/30 04:12:22;;;;;;;23.70;14.40;;;15.40;99.90;;;;;;5114813;28;20508;-78
2023/04/30 04:14:48;;;;;;;18.23;13.88;;;15.40;99.90;;;;;;5114036;28;20063;-78
2023/04/30 04:17:13;;;;;;;18.83;14.20;;;15.40;99.90;;;;;;5114154;28;20027;-78
2023/04/30 04:19:39;;;;;;;20.92;14.68;;;15.40;99.90;;;;;;5114419;28;20035;-78
2023/04/30 04:22:05;;;;;;;18.98;14.25;;;15.40;99.90;;;;;;5114544;28;20053;-78
2023/04/30 04:24:32;;;;;;;20.60;14.63;;;15.40;99.90;;;;;;5114314;28;20032;-78
2023/04/30 04:26:58;;;;;;;17.05;13.27;;;15.40;99.90;;;;;;5114212;28;20023;-78
2023/04/30 04:29:24;;;;;;;19.20;14.45;;;15.50;99.90;;;;;;5114159;28;20031;-78
2023/04/30 04:31:50;;;;;;;22.00;14.75;;;15.40;99.90;;;;;;5114022;28;20020;-78
2023/04/30 04:34:16;;;;;;;21.50;15.27;;;15.40;99.90;;;;;;5114190;28;20023;-78
2023/04/30 04:36:42;;;;;;;19.75;14.35;;;15.30;99.90;;;;;;5114505;28;20039;-78
2023/04/30 04:39:08;;;;;;;17.08;13.85;;;15.40;99.90;;;;;;5114328;28;20012;-78
2023/04/30 04:41:34;;;;;;;22.05;14.13;;;15.30;99.90;;;;;;5114116;28;20470;-78
2023/04/30 04:44:02;;;;;;;18.23;13.40;;;15.40;99.90;;;;;;5113758;28;20059;-79
2023/04/30 04:46:29;;;;;;;18.38;13.30;;;15.40;99.90;;;;;;5113531;28;20028;-79
2023/04/30 04:48:54;;;;;;;17.73;13.05;;;15.40;99.90;;;;;;5114199;28;20094;-78
2023/04/30 04:51:20;;;;;;;17.65;12.23;;;15.30;99.90;;;;;;5113462;28;20112;-79
2023/04/30 04:53:46;;;;;;;15.35;12.15;;;15.40;99.90;;;;;;5113557;28;20020;-78
2023/04/30 04:56:11;;;;;;;20.50;12.15;;;15.30;99.90;;;;;;5113434;28;20092;-78
2023/04/30 04:58:37;;;;;;;16.48;10.90;;;15.40;99.90;;;;;;5113527;28;20027;-78
2023/04/30 05:01:04;;;;;;;16.95;11.98;;;15.40;99.90;;;;;;5094874;28;20406;-79
2023/04/30 05:03:31;;;;;;;14.93;12.00;;;15.40;99.90;;;;;;5113207;28;20077;-78
2023/04/30 05:05:57;;;;;;;16.77;12.60;;;15.40;99.90;;;;;;5113385;28;20019;-78
2023/04/30 05:08:23;;;;;;;20.67;12.45;;;15.40;99.90;;;;;;5095358;28;20024;-78
2023/04/30 05:10:49;;;;;;;17.08;12.57;;;15.40;99.90;;;;;;5113434;28;20425;-79
2023/04/30 05:13:15;;;;;;;19.38;12.27;;;15.40;99.90;;;;;;5113518;28;20050;-78
2023/04/30 05:15:41;;;;;;;16.10;11.90;;;15.40;99.90;;;;;;5113243;28;20766;-78
2023/04/30 05:18:06;;;;;;;22.33;13.32;;;15.40;99.90;;;;;;5113222;28;20039;-78
2023/04/30 05:20:32;;;;;;;18.05;12.27;;;15.40;99.90;;;;;;5113406;28;20035;-78
2023/04/30 05:22:58;;;;;;;18.55;12.15;;;15.30;99.90;;;;;;5112848;28;20578;-79
2023/04/30 05:25:23;;;;;;;17.05;11.80;;;15.40;99.90;;;;;;5113187;28;20039;-78
2023/04/30 05:27:49;;;;;;;16.60;11.57;;;15.40;99.90;;;;;;5113804;28;20030;-78
2023/04/30 05:30:15;;;;;;;17.77;12.15;;;15.40;99.90;;;;;;5112769;28;20523;-78
2023/04/30 05:32:41;;;;;;;27.15;12.88;;;15.40;99.90;;;;;;5112921;28;20035;-78
2023/04/30 05:35:07;;;;;;;18.20;12.48;;;15.40;99.90;;;;;;5112685;28;20107;-78
2023/04/30 05:37:33;;;;;;;19.65;13.13;;;15.40;99.90;;;;;;5112720;28;20036;-78
2023/04/30 05:39:59;;;;;;;19.58;12.68;;;15.40;99.90;;;;;;5112835;28;20077;-78
2023/04/30 05:42:25;;;;;;;19.65;12.52;;;15.40;99.90;;;;;;5112674;28;20031;-78
2023/04/30 05:44:51;;;;;;;20.65;12.85;;;15.40;99.90;;;;;;5112885;28;20024;-78
2023/04/30 05:47:16;;;;;;;21.98;12.27;;;15.40;99.90;;;;;;5112629;28;20035;-78
2023/04/30 05:49:42;;;;;;;20.35;12.32;;;15.40;99.90;;;;;;5113056;28;20034;-78
2023/04/30 05:52:08;;;;;;;16.65;11.65;;;15.40;99.90;;;;;;5112334;28;20115;-78
2023/04/30 05:54:34;;;;;;;17.73;11.95;;;15.40;99.90;;;;;;5112645;28;20028;-77
2023/04/30 05:56:59;;;;;;;15.90;11.57;;;15.40;99.90;;;;;;5112251;28;20035;-78
2023/04/30 05:59:25;;;;;;;19.25;12.35;;;15.40;99.90;;;;;;5112995;28;20015;-78
2023/04/30 06:01:51;;;;;;;18.92;12.18;;;15.40;99.90;;;;;;5112860;28;20020;-78
2023/04/30 06:04:17;;;;;;;20.55;11.43;;;15.40;99.90;;;;;;5112145;28;20101;-78
2023/04/30 06:06:43;;;;;;;19.63;11.55;;;15.40;99.90;;;;;;5112506;28;20035;-78
2023/04/30 06:09:09;;;;;;;17.80;10.98;;;15.40;99.90;;;;;;5111820;28;20564;-78
2023/04/30 06:11:36;;;;;;;18.02;10.30;;;15.40;99.90;;;;;;5111540;28;20504;-78
2023/04/30 06:14:03;;;;;;;15.73;9.98;;;15.50;99.90;;;;;;5112143;28;20031;-78
2023/04/30 06:16:29;;;;;;;18.30;10.77;;;15.50;99.90;;;;;;5111685;28;20038;-78
2023/04/30 06:18:55;;;;;;;17.83;11.45;;;15.50;99.90;;;;;;5112431;28;20016;-77
2023/04/30 06:21:24;;;;;;;15.80;10.93;;;15.50;99.90;;;;;;5112356;28;20076;-77
2023/04/30 06:23:51;;;;;;;15.00;10.93;;;15.50;99.90;;;;;;5111866;28;20433;-78
2023/04/30 06:26:18;;;;;;;16.40;10.13;;;15.50;99.90;;;;;;5111493;28;20029;-78
2023/04/30 06:28:44;;;;;;;17.05;10.70;;;15.50;99.90;;;;;;5111809;28;20031;-78
2023/04/30 06:31:10;;;;;;;14.13;10.73;;;15.50;99.90;;;;;;5111928;28;20020;-78
2023/04/30 06:33:35;;;;;;;15.63;10.80;;;15.50;99.90;;;;;;5112171;28;20027;-78
2023/04/30 06:36:01;;;;;;;15.13;11.50;;;15.50;99.90;;;;;;5111708;28;20068;-78
2023/04/30 06:38:27;;;;;;;16.23;10.88;;;15.50;99.90;;;;;;5112301;28;20026;-78
2023/04/30 06:40:52;;;;;;;17.08;11.20;;;15.50;99.90;;;;;;5111674;28;20068;-78
2023/04/30 06:43:18;;;;;;;17.00;11.55;;;15.40;99.90;;;;;;5112539;28;20020;-78
2023/04/30 06:45:43;;;;;;;18.45;10.93;;;15.40;99.90;;;;;;5111510;28;20039;-78
2023/04/30 06:48:09;;;;;;;19.05;10.65;;;15.50;99.90;;;;;;5093784;28;20023;-78
2023/04/30 06:50:42;;;;;;;18.02;11.02;;;15.60;99.90;;;;;;5111681;28;20023;-78
2023/04/30 06:53:08;;;;;;;17.55;11.07;;;15.60;99.90;;;;;;5111598;28;20030;-78
2023/04/30 06:55:34;;;;;;;20.77;10.88;;;15.60;99.90;;;;;;5112035;28;20043;-78
2023/04/30 06:57:59;;;;;;;18.23;11.07;;;15.60;99.90;;;;;;5111500;28;20485;-78
2023/04/30 07:00:25;;;;;;;15.85;10.82;;;15.60;99.90;;;;;;5111522;28;20106;-78
2023/04/30 07:02:51;;;;;;;15.43;11.35;;;15.70;99.90;;;;;;5111408;28;20023;-78
2023/04/30 07:05:17;;;;;;;18.35;11.90;;;15.70;99.90;;;;;;5111506;28;20034;-78
2023/04/30 07:07:43;;;;;;;15.43;11.38;;;15.70;99.90;;;;;;5111565;28;20028;-78
2023/04/30 07:10:09;;;;;;;20.25;11.27;;;15.70;99.90;;;;;;5111630;28;20538;-78
2023/04/30 07:12:34;;;;;;;18.42;11.13;;;15.70;99.90;;;;;;5111347;28;20047;-78
2023/04/30 07:15:00;;;;;;;15.52;12.07;;;15.70;99.90;;;;;;5092886;28;20042;-78
2023/04/30 07:17:26;;;;;;;14.85;11.85;;;15.80;99.90;;;;;;5111324;28;20117;-77
2023/04/30 07:19:51;;;;;;;16.70;13.07;;;15.90;99.90;;;;;;5111368;28;20084;-78
2023/04/30 07:22:17;;;;;;;16.25;13.38;;;15.90;99.90;;;;;;5111740;28;20046;-78
2023/04/30 07:24:42;;;;;;;14.75;13.27;;;15.90;99.90;;;;;;5111163;28;20034;-78
2023/04/30 07:27:08;;;;;;;15.57;14.02;;;15.90;99.90;;;;;;5114208;28;20067;-77
2023/04/30 07:29:34;;;;;;;17.45;14.18;;;15.90;99.90;;;;;;5115790;28;20020;-78
2023/04/30 07:32:00;;;;;;;17.08;14.98;;;15.90;99.90;;;;;;5115530;28;20020;-78
2023/04/30 07:34:26;;;;;;;16.23;14.63;;;15.90;99.90;;;;;;5097000;28;20522;-78
2023/04/30 07:36:52;;;;;;;15.93;14.30;;;15.90;99.90;;;;;;5114985;28;20084;-78
2023/04/30 07:39:18;;;;;;;16.83;15.02;;;15.90;99.90;;;;;;5114851;28;20015;-78
2023/04/30 07:41:43;;;;;;;16.58;14.63;;;15.90;99.90;;;;;;5115119;28;20036;-78
2023/04/30 07:44:10;;;;;;;18.38;14.57;;;15.90;99.90;;;;;;5115245;28;20024;-78
2023/04/30 07:46:36;;;;;;;17.25;14.48;;;15.90;99.90;;;;;;5114893;28;20055;-78
2023/04/30 07:49:02;;;;;;;16.73;14.30;;;16.00;99.90;;;;;;5115096;28;20059;-77
2023/04/30 07:51:28;;;;;;;16.10;14.50;;;16.00;99.90;;;;;;5115248;28;20030;-77
2023/04/30 07:53:54;;;;;;;15.85;14.27;;;16.10;99.90;;;;;;5114949;28;20053;-78
2023/04/30 07:56:20;;;;;;;15.80;14.20;;;16.00;99.90;;;;;;5114903;28;20040;-78
2023/04/30 07:58:46;;;;;;;16.83;14.30;;;16.10;99.90;;;;;;5114876;28;20024;-79
2023/04/30 08:01:12;;;;;;;16.88;15.13;;;16.10;99.90;;;;;;5115306;28;20027;-78
2023/04/30 08:03:37;;;;;;;15.50;13.85;;;16.10;99.90;;;;;;5114806;28;20028;-79
2023/04/30 08:06:04;;;;;;;16.38;13.85;;;16.20;99.90;;;;;;5114396;28;20496;-78
2023/04/30 08:08:30;;;;;;;15.15;13.52;;;16.20;99.90;;;;;;5114504;28;20032;-78
2023/04/30 08:10:56;;;;;;;15.27;13.30;;;16.20;99.90;;;;;;5114683;28;20323;-77
2023/04/30 08:13:21;;;;;;;15.07;13.48;;;16.30;99.90;;;;;;5114571;28;20060;-78
2023/04/30 08:15:47;;;;;;;16.33;14.00;;;16.30;99.90;;;;;;5114199;28;20496;-78
2023/04/30 08:18:12;;;;;;;16.40;13.70;;;16.40;99.90;;;;;;5114398;28;20027;-78
2023/04/30 08:20:38;;;;;;;16.35;13.45;;;16.40;99.90;;;;;;5114055;28;20031;-78
2023/04/30 08:23:04;;;;;;;16.63;12.75;;;16.40;99.90;;;;;;5114051;28;20055;-78
2023/04/30 08:25:31;;;;;;;14.93;12.77;;;16.50;99.90;;;;;;5114326;28;20024;-78
2023/04/30 08:27:56;;;;;;;13.82;12.43;;;16.60;99.90;;;;;;5114864;28;20023;-79
2023/04/30 08:30:22;;;;;;;14.07;12.68;;;16.60;99.90;;;;;;5114040;28;20365;-78
2023/04/30 08:32:48;;;;;;;16.73;12.48;;;16.60;99.90;;;;;;5095630;28;20400;-78
2023/04/30 08:35:15;;;;;;;14.13;12.52;;;16.60;99.90;;;;;;5114093;28;20046;-78
2023/04/30 08:37:41;;;;;;;14.02;12.18;;;16.60;99.90;;;;;;5113164;28;20027;-78
2023/04/30 08:40:10;;;;;;;16.15;12.25;;;16.70;99.90;;;;;;5114416;28;20084;-78
2023/04/30 08:42:40;;;;;;;13.13;11.70;;;16.70;99.90;;;;;;5114291;28;20400;-82
2023/04/30 08:45:10;;;;;;;13.85;12.18;;;16.80;99.90;;;;;;5095476;28;20068;-83
2023/04/30 08:47:37;;;;;;;16.10;12.68;;;16.80;99.90;;;;;;5113740;28;20055;-82
2023/04/30 08:50:04;;;;;;;15.57;12.52;;;16.90;99.90;;;;;;5113650;28;20019;-82
2023/04/30 08:52:34;;;;;;;14.38;12.88;;;16.80;99.90;;;;;;5113676;28;20028;-81
2023/04/30 08:55:00;;;;;;;14.18;12.68;;;16.90;99.90;;;;;;5113519;28;20106;-81
2023/04/30 08:57:26;;;;;;;16.00;12.35;;;16.90;99.90;;;;;;5113960;28;20016;-82
2023/04/30 08:59:53;;;;;;;14.15;12.65;;;17.00;99.90;;;;;;5114063;28;20023;-82
2023/04/30 09:02:19;;;;;;;15.52;12.45;;;17.00;99.90;;;;;;5113330;28;20019;-82
2023/04/30 09:04:45;;;;;;;14.65;13.13;;;17.00;99.90;;;;;;5113152;28;20515;-81
2023/04/30 09:07:13;;;;;;;15.18;12.80;;;17.00;99.90;;;;;;5113241;28;20028;-81
2023/04/30 09:09:39;;;;;;;14.70;13.05;;;17.00;99.90;;;;;;5113614;28;20031;-82
2023/04/30 09:12:16;;;;;;;13.93;11.88;;;17.00;99.90;;;;;;5113599;28;20047;-81
2023/04/30 09:15:01;;;;;;;15.65;11.93;;;17.00;99.90;;;;;;5113219;28;20039;-81
2023/04/30 09:17:27;;;;;;;13.68;12.25;;;17.10;99.90;;;;;;5113230;28;20140;-82
2023/04/30 09:19:52;;;;;;;16.15;12.15;;;17.20;99.90;;;;;;5112675;28;20019;-81
2023/04/30 09:22:23;;;;;;;15.52;12.88;;;17.20;99.90;;;;;;5113874;28;20499;-81
2023/04/30 09:24:50;;;;;;;15.20;13.57;;;17.20;99.90;;;;;;5113012;28;20020;-82
2023/04/30 09:27:23;;;;;;;13.70;11.85;;;17.20;99.90;;;;;;5113438;28;20476;-82
2023/04/30 09:29:49;;;;;;;14.85;11.95;;;17.20;99.90;;;;;;5112951;28;20023;-82
2023/04/30 09:32:14;;;;;;;13.55;10.52;;;17.30;99.90;;;;;;5112773;28;20034;-82
2023/04/30 09:34:42;;;;;;;12.10;10.30;;;17.30;99.90;;;;;;5112425;28;20028;-82
2023/04/30 09:37:08;;;;;;;13.30;11.27;;;17.40;99.90;;;;;;5112757;28;20479;-81
2023/04/30 09:39:54;;;;;;;12.75;10.82;;;17.40;99.90;;;;;;5113303;28;20045;-82
2023/04/30 09:42:20;;;;;;;14.82;10.98;;;17.60;99.90;;;;;;5112947;28;20031;-83
2023/04/30 09:44:46;;;;;;;11.88;10.57;;;17.60;99.90;;;;;;5112750;28;20064;-83
2023/04/30 09:47:16;;;;;;;14.23;10.20;;;17.70;99.90;;;;;;5112962;28;20074;-82
2023/04/30 09:49:43;;;;;;;12.07;10.40;;;17.80;99.90;;;;;;5112669;28;20054;-82
2023/04/30 09:52:11;;;;;;;12.45;10.77;;;17.70;99.90;;;;;;5112503;28;20019;-82
2023/04/30 09:54:37;;;;;;;13.10;10.95;;;17.60;99.90;;;;;;5112526;28;20385;-81
2023/04/30 09:57:03;;;;;;;11.88;10.70;;;17.60;99.90;;;;;;5112487;28;20197;-82
2023/04/30 09:59:31;;;;;;;12.05;10.80;;;17.60;99.90;;;;;;5112824;28;20149;-82
2023/04/30 10:02:05;;;;;;;14.95;11.07;;;17.70;99.90;;;;;;5112273;28;20068;-82
2023/04/30 10:04:35;;;;;;;12.77;11.50;;;17.80;99.90;;;;;;5112189;28;20024;-82
2023/04/30 10:07:06;;;;;;;12.73;11.40;;;17.80;99.90;;;;;;5112378;28;20047;-82
2023/04/30 10:09:47;;;;;;;13.55;11.15;;;17.80;99.90;;;;;;5112647;28;20027;-82
2023/04/30 10:12:22;;;;;;;12.07;10.80;;;17.70;99.90;;;;;;5112108;28;20046;-82
2023/04/30 10:14:56;;;;;;;12.25;10.52;;;17.70;99.90;;;;;;5111977;28;20028;-82
2023/04/30 10:17:26;;;;;;;11.35;9.85;;;17.70;99.90;;;;;;5111913;28;20385;-82
2023/04/30 10:19:56;;;;;;;12.10;10.38;;;17.70;99.90;;;;;;5111663;27;20034;-82
2023/04/30 10:22:22;;;;;;;11.77;9.95;;;17.70;99.90;;;;;;5112109;28;20026;-82
2023/04/30 10:24:49;;;;;;;11.38;10.20;;;17.70;99.90;;;;;;5112661;28;20455;-82
2023/04/30 10:27:14;;;;;;;12.48;11.25;;;17.80;99.90;;;;;;5112164;28;20473;-82
2023/04/30 10:29:41;;;;;;;12.30;10.38;;;17.70;99.90;;;;;;5111746;28;20023;-82
2023/04/30 10:32:07;;;;;;;11.73;10.50;;;17.90;99.90;;;;;;5112890;28;20069;-80
2023/04/30 10:34:59;;;;;;;13.00;10.63;;;18.00;99.90;;;;;;5111404;28;20043;-81
2023/04/30 10:37:38;;;;;;;11.45;10.25;;;18.00;99.90;;;;;;5111642;28;20024;-81
2023/04/30 10:40:08;;;;;;;12.10;10.50;;;17.90;99.90;;;;;;5112024;28;20027;-81
2023/04/30 10:42:34;;;;;;;10.75;9.63;;;17.90;99.90;;;;;;5112343;28;20039;-82
2023/04/30 10:45:02;;;;;;;11.63;9.70;;;18.00;99.90;;;;;;5111807;28;20108;-83
2023/04/30 10:47:29;;;;;;;11.30;9.93;;;17.90;99.90;;;;;;5111448;28;20027;-83
2023/04/30 10:50:03;;;;;;;11.02;9.70;;;18.00;99.90;;;;;;5111920;28;20152;-82
2023/04/30 10:52:29;;;;;;;12.05;10.32;;;18.00;99.90;;;;;;5111865;28;20015;-82
2023/04/30 10:54:55;;;;;;;11.57;9.88;;;18.00;99.90;;;;;;5112244;28;20027;-81
2023/04/30 10:57:21;;;;;;;11.60;9.25;;;18.10;99.90;;;;;;5111731;28;20038;-82
2023/04/30 10:59:50;;;;;;;13.32;10.00;;;18.20;99.90;;;;;;5111619;28;20065;-82
2023/04/30 11:02:18;;;;;;;11.98;9.15;;;18.10;99.90;;;;;;5114596;28;20042;-82
2023/04/30 11:05:12;;;;;;;11.05;8.80;;;18.20;99.90;;;;;;5116414;28;20449;-82
2023/04/30 11:07:48;;;;;;;11.30;9.20;;;18.30;99.90;;;;;;5115820;28;20043;-83
2023/04/30 11:10:14;;;;;;;12.90;9.02;;;18.40;99.90;;;;;;5116254;28;20268;-83
2023/04/30 11:12:51;;;;;;;11.57;8.30;;;18.40;99.90;;;;;;5097583;28;20124;-83
2023/04/30 11:15:18;;;;;;;11.35;8.23;;;18.40;99.90;;;;;;5115554;28;20119;-83
2023/04/30 11:17:45;;;;;;;11.50;7.88;;;18.40;99.90;;;;;;5115799;28;20034;-83
2023/04/30 11:20:22;;;;;;;9.35;7.40;;;18.40;99.90;;;;;;5115991;28;20019;-83
2023/04/30 11:22:48;;;;;;;11.77;8.10;;;18.40;99.90;;;;;;5115650;28;20028;-83
2023/04/30 11:25:18;;;;;;;12.25;7.68;;;18.50;99.90;;;;;;5115842;28;20015;-84
2023/04/30 11:27:44;;;;;;;9.73;7.57;;;18.60;99.90;;;;;;5116323;28;20077;-83
2023/04/30 11:30:15;;;;;;;9.20;7.00;;;18.60;99.90;;;;;;5116266;28;20028;-83
2023/04/30 11:32:46;;;;;;;9.32;7.72;;;18.60;99.90;;;;;;5115587;28;20422;-84
2023/04/30 11:35:12;;;;;;;8.88;6.90;;;18.60;99.90;;;;;;5115261;28;20035;-83
2023/04/30 11:37:42;;;;;;;10.27;6.72;;;18.50;99.90;;;;;;5115089;28;20111;-84
2023/04/30 11:40:09;;;;;;;9.65;6.70;;;18.50;99.90;;;;;;5115054;28;20084;-83
2023/04/30 11:42:38;;;;;;;8.55;6.10;;;18.50;99.90;;;;;;5115024;28;20016;-84
2023/04/30 11:45:08;;;;;;;10.48;6.47;;;18.70;99.90;;;;;;5114601;28;20040;-84
2023/04/30 11:47:50;;;;;;;9.65;6.38;;;18.70;99.90;;;;;;5114927;28;20081;-84
2023/04/30 11:50:18;;;;;;;9.18;5.80;;;18.80;99.90;;;;;;5115595;28;20027;-84
2023/04/30 11:52:51;;;;;;;7.88;5.65;;;18.80;99.90;;;;;;5115097;28;20027;-83
2023/04/30 11:55:22;;;;;;;9.98;5.90;;;18.80;99.90;;;;;;5114876;28;20511;-83
2023/04/30 11:57:49;;;;;;;10.07;5.95;;;18.90;99.90;;;;;;5114739;28;20106;-83
2023/04/30 12:00:17;;;;;;;9.98;6.35;;;18.80;99.90;;;;;;5114773;28;20027;-84
2023/04/30 12:02:44;;;;;;;7.72;5.78;;;18.80;99.90;;;;;;5114920;28;20473;-83
2023/04/30 12:05:14;;;;;;;7.75;5.60;;;18.90;99.90;;;;;;5115273;28;20031;-83
2023/04/30 12:08:06;;;;;;;8.60;6.00;;;19.00;99.90;;;;;;5114645;28;20028;-83
2023/04/30 12:10:32;;;;;;;12.07;5.50;;;19.00;99.90;;;;;;5114804;28;20055;-84
2023/04/30 12:12:58;;;;;;;9.80;6.40;;;19.00;99.90;;;;;;5113199;28;20153;-83
2023/04/30 12:15:25;;;;;;;9.32;6.20;;;18.90;99.90;;;;;;5113940;28;20575;-83
2023/04/30 12:17:53;;;;;;;10.52;6.40;;;19.00;99.90;;;;;;5114615;28;20024;-83
2023/04/30 12:20:27;;;;;;;11.02;6.00;;;19.00;99.90;;;;;;5096254;28;20032;-83
2023/04/30 12:22:53;;;;;;;8.55;6.47;;;19.10;99.90;;;;;;5114347;28;20069;-83
2023/04/30 12:25:20;;;;;;;10.52;6.47;;;19.00;99.90;;;;;;5114195;28;20381;-83
2023/04/30 12:27:50;;;;;;;9.65;5.88;;;18.90;99.90;;;;;;5114426;28;20047;-82
2023/04/30 12:30:20;;;;;;;9.05;5.68;;;19.00;99.90;;;;;;5113703;28;20043;-82